sensor_id;sensor_type;location;lat;lon;timestamp;pressure;altitude;pressure_sealevel;temperature;humidity
49645;BME280;36494;50.730;-1.932;2024-03-08T00:00:41;100646.69;;;5.31;100.00
49645;BME280;36494;50.730;-1.932;2024-03-08T00:03:06;100647.53;;;5.30;100.00
49645;BME280;36494;50.730;-1.932;2024-03-08T00:05:31;100648.35;;;5.29;100.00
49645;BME280;36494;50.730;-1.932;2024-03-08T00:07:57;100643.44;;;5.23;100.00
49645;BME280;36494;50.730;-1.932;2024-03-08T00:10:23;100643.80;;;5.19;100.00
49645;BME280;36494;50.730;-1.932;2024-03-08T00:12:48;100639.11;;;5.21;100.00
49645;BME280;36494;50.730;-1.932;2024-03-08T00:15:14;100631.61;;;5.19;100.00
49645;BME280;36494;50.730;-1.932;2024-03-08T00:17:38;100630.64;;;5.24;100.00
49645;BME280;36494;50.730;-1.932;2024-03-08T00:20:05;100626.96;;;5.20;100.00
49645;BME280;36494;50.730;-1.932;2024-03-08T00:22:29;100625.01;;;5.19;100.00
49645;BME280;36494;50.730;-1.932;2024-03-08T00:24:54;100625.69;;;5.19;100.00
49645;BME280;36494;50.730;-1.932;2024-03-08T00:27:20;100622.21;;;5.19;100.00
49645;BME280;36494;50.730;-1.932;2024-03-08T00:29:46;100618.56;;;5.18;100.00
49645;BME280;36494;50.730;-1.932;2024-03-08T00:32:11;100618.83;;;5.16;100.00
49645;BME280;36494;50.730;-1.932;2024-03-08T00:34:37;100615.96;;;5.15;100.00
49645;BME280;36494;50.730;-1.932;2024-03-08T00:37:02;100615.04;;;5.14;100.00
49645;BME280;36494;50.730;-1.932;2024-03-08T00:39:28;100615.17;;;5.12;100.00
49645;BME280;36494;50.730;-1.932;2024-03-08T00:41:55;100612.65;;;5.11;100.00
49645;BME280;36494;50.730;-1.932;2024-03-08T00:44:20;100607.80;;;5.12;100.00
49645;BME280;36494;50.730;-1.932;2024-03-08T00:46:45;100602.69;;;5.07;100.00
49645;BME280;36494;50.730;-1.932;2024-03-08T00:49:10;100603.01;;;5.10;100.00
49645;BME280;36494;50.730;-1.932;2024-03-08T00:51:35;100598.23;;;5.08;100.00
49645;BME280;36494;50.730;-1.932;2024-03-08T00:54:01;100592.43;;;5.08;100.00
49645;BME280;36494;50.730;-1.932;2024-03-08T00:56:26;100588.33;;;5.05;100.00
49645;BME280;36494;50.730;-1.932;2024-03-08T00:58:51;100586.03;;;5.05;100.00
49645;BME280;36494;50.730;-1.932;2024-03-08T01:01:18;100582.19;;;5.00;100.00
49645;BME280;36494;50.730;-1.932;2024-03-08T01:03:43;100573.61;;;4.99;100.00
49645;BME280;36494;50.730;-1.932;2024-03-08T01:06:08;100570.00;;;5.02;100.00
49645;BME280;36494;50.730;-1.932;2024-03-08T01:08:34;100563.40;;;5.00;100.00
49645;BME280;36494;50.730;-1.932;2024-03-08T01:10:59;100558.96;;;4.96;100.00
49645;BME280;36494;50.730;-1.932;2024-03-08T01:13:25;100554.57;;;4.96;100.00
49645;BME280;36494;50.730;-1.932;2024-03-08T01:15:50;100550.59;;;4.97;100.00
49645;BME280;36494;50.730;-1.932;2024-03-08T01:18:15;100548.70;;;4.95;100.00
49645;BME280;36494;50.730;-1.932;2024-03-08T01:20:41;100542.93;;;4.93;100.00
49645;BME280;36494;50.730;-1.932;2024-03-08T01:23:07;100536.45;;;4.88;100.00
49645;BME280;36494;50.730;-1.932;2024-03-08T01:25:33;100531.18;;;4.93;100.00
49645;BME280;36494;50.730;-1.932;2024-03-08T01:27:59;100528.91;;;4.93;100.00
49645;BME280;36494;50.730;-1.932;2024-03-08T01:30:24;100527.19;;;4.89;100.00
49645;BME280;36494;50.730;-1.932;2024-03-08T01:32:50;100524.67;;;4.90;100.00
49645;BME280;36494;50.730;-1.932;2024-03-08T01:35:15;100520.16;;;4.88;100.00
49645;BME280;36494;50.730;-1.932;2024-03-08T01:37:41;100516.21;;;4.89;100.00
49645;BME280;36494;50.730;-1.932;2024-03-08T01:40:07;100509.04;;;4.85;100.00
49645;BME280;36494;50.730;-1.932;2024-03-08T01:42:32;100508.31;;;4.84;100.00
49645;BME280;36494;50.730;-1.932;2024-03-08T01:44:57;100503.34;;;4.83;100.00
49645;BME280;36494;50.730;-1.932;2024-03-08T01:47:23;100498.54;;;4.80;100.00
49645;BME280;36494;50.730;-1.932;2024-03-08T01:49:48;100499.67;;;4.80;100.00
49645;BME280;36494;50.730;-1.932;2024-03-08T01:52:15;100492.84;;;4.79;100.00
49645;BME280;36494;50.730;-1.932;2024-03-08T01:54:40;100488.36;;;4.76;100.00
49645;BME280;36494;50.730;-1.932;2024-03-08T01:57:06;100485.15;;;4.73;100.00
49645;BME280;36494;50.730;-1.932;2024-03-08T01:59:31;100483.57;;;4.70;100.00
49645;BME280;36494;50.730;-1.932;2024-03-08T02:02:01;100485.40;;;4.67;100.00
49645;BME280;36494;50.730;-1.932;2024-03-08T02:04:22;100481.38;;;4.67;100.00
49645;BME280;36494;50.730;-1.932;2024-03-08T02:06:48;100478.80;;;4.64;100.00
49645;BME280;36494;50.730;-1.932;2024-03-08T02:09:13;100476.67;;;4.62;100.00
49645;BME280;36494;50.730;-1.932;2024-03-08T02:11:40;100474.28;;;4.63;100.00
49645;BME280;36494;50.730;-1.932;2024-03-08T02:14:03;100471.05;;;4.61;100.00
49645;BME280;36494;50.730;-1.932;2024-03-08T02:16:29;100468.44;;;4.57;100.00
49645;BME280;36494;50.730;-1.932;2024-03-08T02:18:55;100459.36;;;4.55;100.00
49645;BME280;36494;50.730;-1.932;2024-03-08T02:21:20;100457.15;;;4.55;100.00
49645;BME280;36494;50.730;-1.932;2024-03-08T02:23:46;100451.60;;;4.53;100.00
49645;BME280;36494;50.730;-1.932;2024-03-08T02:26:11;100449.16;;;4.51;100.00
49645;BME280;36494;50.730;-1.932;2024-03-08T02:28:37;100444.59;;;4.54;100.00
49645;BME280;36494;50.730;-1.932;2024-03-08T02:31:02;100440.97;;;4.53;100.00
49645;BME280;36494;50.730;-1.932;2024-03-08T02:33:28;100435.43;;;4.50;100.00
49645;BME280;36494;50.730;-1.932;2024-03-08T02:35:54;100424.45;;;4.46;100.00
49645;BME280;36494;50.730;-1.932;2024-03-08T02:38:21;100417.90;;;4.44;100.00
49645;BME280;36494;50.730;-1.932;2024-03-08T02:40:46;100416.52;;;4.44;100.00
49645;BME280;36494;50.730;-1.932;2024-03-08T02:43:10;100411.73;;;4.41;100.00
49645;BME280;36494;50.730;-1.932;2024-03-08T02:45:36;100405.08;;;4.43;100.00
49645;BME280;36494;50.730;-1.932;2024-03-08T02:48:01;100401.69;;;4.39;100.00
49645;BME280;36494;50.730;-1.932;2024-03-08T02:50:26;100393.47;;;4.35;100.00
49645;BME280;36494;50.730;-1.932;2024-03-08T02:52:52;100387.25;;;4.32;100.00
49645;BME280;36494;50.730;-1.932;2024-03-08T02:55:17;100383.75;;;4.31;100.00
49645;BME280;36494;50.730;-1.932;2024-03-08T02:57:42;100380.97;;;4.30;100.00
49645;BME280;36494;50.730;-1.932;2024-03-08T03:00:13;100380.78;;;4.28;100.00
49645;BME280;36494;50.730;-1.932;2024-03-08T03:02:34;100372.38;;;4.24;100.00
49645;BME280;36494;50.730;-1.932;2024-03-08T03:04:59;100372.45;;;4.25;100.00
49645;BME280;36494;50.730;-1.932;2024-03-08T03:07:24;100368.73;;;4.25;100.00
49645;BME280;36494;50.730;-1.932;2024-03-08T03:09:49;100363.65;;;4.19;100.00
49645;BME280;36494;50.730;-1.932;2024-03-08T03:12:15;100361.88;;;4.13;100.00
49645;BME280;36494;50.730;-1.932;2024-03-08T03:14:40;100358.01;;;4.12;100.00
49645;BME280;36494;50.730;-1.932;2024-03-08T03:17:06;100353.82;;;4.08;100.00
49645;BME280;36494;50.730;-1.932;2024-03-08T03:19:32;100350.12;;;4.06;100.00
49645;BME280;36494;50.730;-1.932;2024-03-08T03:21:58;100343.77;;;4.06;100.00
49645;BME280;36494;50.730;-1.932;2024-03-08T03:24:23;100337.57;;;4.08;100.00
49645;BME280;36494;50.730;-1.932;2024-03-08T03:26:49;100333.22;;;4.08;100.00
49645;BME280;36494;50.730;-1.932;2024-03-08T03:29:15;100325.92;;;4.08;100.00
49645;BME280;36494;50.730;-1.932;2024-03-08T03:31:41;100325.87;;;4.05;100.00
49645;BME280;36494;50.730;-1.932;2024-03-08T03:34:07;100322.06;;;4.04;100.00
49645;BME280;36494;50.730;-1.932;2024-03-08T03:36:32;100321.69;;;4.03;100.00
49645;BME280;36494;50.730;-1.932;2024-03-08T03:38:58;100318.74;;;4.06;100.00
49645;BME280;36494;50.730;-1.932;2024-03-08T03:41:23;100318.84;;;4.01;100.00
49645;BME280;36494;50.730;-1.932;2024-03-08T03:43:49;100312.20;;;3.98;100.00
49645;BME280;36494;50.730;-1.932;2024-03-08T03:46:14;100307.36;;;3.97;100.00
49645;BME280;36494;50.730;-1.932;2024-03-08T03:48:39;100300.31;;;3.97;100.00
49645;BME280;36494;50.730;-1.932;2024-03-08T03:51:05;100297.33;;;3.91;100.00
49645;BME280;36494;50.730;-1.932;2024-03-08T03:53:31;100289.45;;;3.96;100.00
49645;BME280;36494;50.730;-1.932;2024-03-08T03:55:56;100283.34;;;3.97;100.00
49645;BME280;36494;50.730;-1.932;2024-03-08T03:58:22;100278.90;;;3.96;100.00
49645;BME280;36494;50.730;-1.932;2024-03-08T04:00:47;100275.29;;;3.91;100.00
49645;BME280;36494;50.730;-1.932;2024-03-08T04:03:13;100271.98;;;3.90;100.00
49645;BME280;36494;50.730;-1.932;2024-03-08T04:05:38;100268.94;;;3.89;100.00
49645;BME280;36494;50.730;-1.932;2024-03-08T04:08:05;100266.02;;;3.90;100.00
49645;BME280;36494;50.730;-1.932;2024-03-08T04:10:30;100261.63;;;3.87;100.00
49645;BME280;36494;50.730;-1.932;2024-03-08T04:12:55;100257.34;;;3.88;100.00
49645;BME280;36494;50.730;-1.932;2024-03-08T04:15:20;100255.65;;;3.90;100.00
49645;BME280;36494;50.730;-1.932;2024-03-08T04:17:45;100250.04;;;3.88;100.00
49645;BME280;36494;50.730;-1.932;2024-03-08T04:20:11;100243.68;;;3.87;100.00
49645;BME280;36494;50.730;-1.932;2024-03-08T04:22:36;100244.57;;;3.87;100.00
49645;BME280;36494;50.730;-1.932;2024-03-08T04:25:01;100240.47;;;3.85;100.00
49645;BME280;36494;50.730;-1.932;2024-03-08T04:27:27;100240.78;;;3.80;100.00
49645;BME280;36494;50.730;-1.932;2024-03-08T04:29:53;100235.96;;;3.82;100.00
49645;BME280;36494;50.730;-1.932;2024-03-08T04:32:18;100234.90;;;3.80;100.00
49645;BME280;36494;50.730;-1.932;2024-03-08T04:34:44;100231.43;;;3.77;100.00
49645;BME280;36494;50.730;-1.932;2024-03-08T04:37:10;100232.34;;;3.76;100.00
49645;BME280;36494;50.730;-1.932;2024-03-08T04:39:36;100230.16;;;3.76;100.00
49645;BME280;36494;50.730;-1.932;2024-03-08T04:42:02;100228.00;;;3.78;100.00
49645;BME280;36494;50.730;-1.932;2024-03-08T04:44:27;100225.68;;;3.73;100.00
49645;BME280;36494;50.730;-1.932;2024-03-08T04:46:52;100222.99;;;3.75;100.00
49645;BME280;36494;50.730;-1.932;2024-03-08T04:49:19;100222.25;;;3.70;100.00
49645;BME280;36494;50.730;-1.932;2024-03-08T04:51:44;100223.54;;;3.74;100.00
49645;BME280;36494;50.730;-1.932;2024-03-08T04:54:09;100220.22;;;3.73;100.00
49645;BME280;36494;50.730;-1.932;2024-03-08T04:56:34;100217.60;;;3.71;100.00
49645;BME280;36494;50.730;-1.932;2024-03-08T04:59:00;100215.64;;;3.73;100.00
49645;BME280;36494;50.730;-1.932;2024-03-08T05:01:25;100219.61;;;3.71;100.00
49645;BME280;36494;50.730;-1.932;2024-03-08T05:03:51;100220.37;;;3.70;100.00
49645;BME280;36494;50.730;-1.932;2024-03-08T05:06:17;100222.62;;;3.70;100.00
49645;BME280;36494;50.730;-1.932;2024-03-08T05:08:42;100227.10;;;3.67;100.00
49645;BME280;36494;50.730;-1.932;2024-03-08T05:11:08;100229.98;;;3.65;100.00
49645;BME280;36494;50.730;-1.932;2024-03-08T05:13:33;100234.08;;;3.65;100.00
49645;BME280;36494;50.730;-1.932;2024-03-08T05:15:58;100237.32;;;3.67;100.00
49645;BME280;36494;50.730;-1.932;2024-03-08T05:18:24;100236.86;;;3.66;100.00
49645;BME280;36494;50.730;-1.932;2024-03-08T05:20:49;100233.29;;;3.67;100.00
49645;BME280;36494;50.730;-1.932;2024-03-08T05:23:15;100225.06;;;3.65;100.00
49645;BME280;36494;50.730;-1.932;2024-03-08T05:25:40;100216.95;;;3.65;100.00
49645;BME280;36494;50.730;-1.932;2024-03-08T05:28:05;100214.40;;;3.63;100.00
49645;BME280;36494;50.730;-1.932;2024-03-08T05:30:30;100210.74;;;3.63;100.00
49645;BME280;36494;50.730;-1.932;2024-03-08T05:32:55;100214.61;;;3.59;100.00
49645;BME280;36494;50.730;-1.932;2024-03-08T05:35:21;100218.78;;;3.59;100.00
49645;BME280;36494;50.730;-1.932;2024-03-08T05:37:47;100219.77;;;3.59;100.00
49645;BME280;36494;50.730;-1.932;2024-03-08T05:40:13;100220.36;;;3.59;100.00
49645;BME280;36494;50.730;-1.932;2024-03-08T05:42:38;100223.73;;;3.59;100.00
49645;BME280;36494;50.730;-1.932;2024-03-08T05:45:05;100221.38;;;3.57;100.00
49645;BME280;36494;50.730;-1.932;2024-03-08T05:47:30;100215.52;;;3.54;100.00
49645;BME280;36494;50.730;-1.932;2024-03-08T05:49:55;100219.71;;;3.55;100.00
49645;BME280;36494;50.730;-1.932;2024-03-08T05:52:20;100221.51;;;3.53;100.00
49645;BME280;36494;50.730;-1.932;2024-03-08T05:54:46;100217.29;;;3.53;100.00
49645;BME280;36494;50.730;-1.932;2024-03-08T05:57:12;100216.49;;;3.51;100.00
49645;BME280;36494;50.730;-1.932;2024-03-08T05:59:37;100209.75;;;3.52;100.00
49645;BME280;36494;50.730;-1.932;2024-03-08T06:02:03;100208.03;;;3.52;100.00
49645;BME280;36494;50.730;-1.932;2024-03-08T06:04:29;100204.02;;;3.51;100.00
49645;BME280;36494;50.730;-1.932;2024-03-08T06:06:54;100196.92;;;3.50;100.00
49645;BME280;36494;50.730;-1.932;2024-03-08T06:09:20;100191.71;;;3.46;100.00
49645;BME280;36494;50.730;-1.932;2024-03-08T06:11:46;100188.41;;;3.48;100.00
49645;BME280;36494;50.730;-1.932;2024-03-08T06:14:11;100191.49;;;3.46;100.00
49645;BME280;36494;50.730;-1.932;2024-03-08T06:16:37;100194.21;;;3.46;100.00
49645;BME280;36494;50.730;-1.932;2024-03-08T06:19:02;100191.64;;;3.41;100.00
49645;BME280;36494;50.730;-1.932;2024-03-08T06:21:28;100196.81;;;3.38;100.00
49645;BME280;36494;50.730;-1.932;2024-03-08T06:23:53;100192.46;;;3.32;100.00
49645;BME280;36494;50.730;-1.932;2024-03-08T06:26:18;100183.10;;;3.35;100.00
49645;BME280;36494;50.730;-1.932;2024-03-08T06:28:45;100188.30;;;3.33;100.00
49645;BME280;36494;50.730;-1.932;2024-03-08T06:31:10;100186.65;;;3.33;100.00
49645;BME280;36494;50.730;-1.932;2024-03-08T06:33:35;100186.20;;;3.34;100.00
49645;BME280;36494;50.730;-1.932;2024-03-08T06:36:00;100183.19;;;3.34;100.00
49645;BME280;36494;50.730;-1.932;2024-03-08T06:38:26;100186.97;;;3.33;100.00
49645;BME280;36494;50.730;-1.932;2024-03-08T06:40:51;100185.25;;;3.32;100.00
49645;BME280;36494;50.730;-1.932;2024-03-08T06:43:17;100178.18;;;3.32;100.00
49645;BME280;36494;50.730;-1.932;2024-03-08T06:45:42;100182.59;;;3.35;100.00
49645;BME280;36494;50.730;-1.932;2024-03-08T06:48:08;100187.77;;;3.32;100.00
49645;BME280;36494;50.730;-1.932;2024-03-08T06:50:33;100187.88;;;3.32;100.00
49645;BME280;36494;50.730;-1.932;2024-03-08T06:52:59;100193.06;;;3.30;100.00
49645;BME280;36494;50.730;-1.932;2024-03-08T06:55:24;100192.36;;;3.29;100.00
49645;BME280;36494;50.730;-1.932;2024-03-08T06:57:50;100188.44;;;3.22;100.00
49645;BME280;36494;50.730;-1.932;2024-03-08T07:00:17;100187.03;;;3.24;100.00
49645;BME280;36494;50.730;-1.932;2024-03-08T07:02:41;100184.32;;;3.26;100.00
49645;BME280;36494;50.730;-1.932;2024-03-08T07:05:07;100183.78;;;3.27;100.00
49645;BME280;36494;50.730;-1.932;2024-03-08T07:07:33;100177.15;;;3.31;100.00
49645;BME280;36494;50.730;-1.932;2024-03-08T07:09:58;100173.19;;;3.34;100.00
49645;BME280;36494;50.730;-1.932;2024-03-08T07:12:25;100172.03;;;3.33;100.00
49645;BME280;36494;50.730;-1.932;2024-03-08T07:14:50;100169.08;;;3.36;100.00
49645;BME280;36494;50.730;-1.932;2024-03-08T07:17:15;100170.46;;;3.33;100.00
49645;BME280;36494;50.730;-1.932;2024-03-08T07:19:41;100169.85;;;3.35;100.00
49645;BME280;36494;50.730;-1.932;2024-03-08T07:22:06;100166.58;;;3.40;100.00
49645;BME280;36494;50.730;-1.932;2024-03-08T07:24:32;100162.72;;;3.40;100.00
49645;BME280;36494;50.730;-1.932;2024-03-08T07:26:57;100160.44;;;3.43;100.00
49645;BME280;36494;50.730;-1.932;2024-03-08T07:29:23;100157.46;;;3.45;100.00
49645;BME280;36494;50.730;-1.932;2024-03-08T07:31:48;100159.11;;;3.46;100.00
49645;BME280;36494;50.730;-1.932;2024-03-08T07:34:15;100158.52;;;3.47;100.00
49645;BME280;36494;50.730;-1.932;2024-03-08T07:36:40;100156.29;;;3.50;100.00
49645;BME280;36494;50.730;-1.932;2024-03-08T07:39:06;100155.59;;;3.52;100.00
49645;BME280;36494;50.730;-1.932;2024-03-08T07:41:31;100152.99;;;3.56;100.00
49645;BME280;36494;50.730;-1.932;2024-03-08T07:43:57;100147.67;;;3.61;100.00
49645;BME280;36494;50.730;-1.932;2024-03-08T07:46:23;100138.04;;;3.63;100.00
49645;BME280;36494;50.730;-1.932;2024-03-08T07:48:49;100134.60;;;3.68;100.00
49645;BME280;36494;50.730;-1.932;2024-03-08T07:51:16;100133.55;;;3.68;100.00
49645;BME280;36494;50.730;-1.932;2024-03-08T07:53:40;100124.19;;;3.68;100.00
49645;BME280;36494;50.730;-1.932;2024-03-08T07:56:06;100127.33;;;3.70;100.00
49645;BME280;36494;50.730;-1.932;2024-03-08T07:58:31;100121.60;;;3.76;100.00
49645;BME280;36494;50.730;-1.932;2024-03-08T08:00:57;100121.22;;;3.79;100.00
49645;BME280;36494;50.730;-1.932;2024-03-08T08:03:22;100116.69;;;3.82;100.00
49645;BME280;36494;50.730;-1.932;2024-03-08T08:05:48;100112.95;;;3.87;100.00
49645;BME280;36494;50.730;-1.932;2024-03-08T08:08:13;100109.73;;;3.90;100.00
49645;BME280;36494;50.730;-1.932;2024-03-08T08:10:39;100100.78;;;3.96;100.00
49645;BME280;36494;50.730;-1.932;2024-03-08T08:13:04;100097.62;;;3.97;100.00
49645;BME280;36494;50.730;-1.932;2024-03-08T08:15:29;100098.56;;;4.04;100.00
49645;BME280;36494;50.730;-1.932;2024-03-08T08:17:54;100093.20;;;4.10;100.00
49645;BME280;36494;50.730;-1.932;2024-03-08T08:20:20;100088.94;;;4.14;100.00
49645;BME280;36494;50.730;-1.932;2024-03-08T08:22:45;100081.74;;;4.18;100.00
49645;BME280;36494;50.730;-1.932;2024-03-08T08:25:11;100079.77;;;4.22;100.00
49645;BME280;36494;50.730;-1.932;2024-03-08T08:27:36;100080.37;;;4.28;100.00
49645;BME280;36494;50.730;-1.932;2024-03-08T08:30:02;100079.38;;;4.32;100.00
49645;BME280;36494;50.730;-1.932;2024-03-08T08:32:26;100079.32;;;4.36;100.00
49645;BME280;36494;50.730;-1.932;2024-03-08T08:34:52;100079.89;;;4.40;100.00
49645;BME280;36494;50.730;-1.932;2024-03-08T08:37:17;100080.35;;;4.46;100.00
49645;BME280;36494;50.730;-1.932;2024-03-08T08:39:43;100077.49;;;4.54;100.00
49645;BME280;36494;50.730;-1.932;2024-03-08T08:42:08;100068.20;;;4.57;100.00
49645;BME280;36494;50.730;-1.932;2024-03-08T08:44:35;100068.69;;;4.62;100.00
49645;BME280;36494;50.730;-1.932;2024-03-08T08:47:01;100064.93;;;4.61;100.00
49645;BME280;36494;50.730;-1.932;2024-03-08T08:49:26;100058.67;;;4.63;100.00
49645;BME280;36494;50.730;-1.932;2024-03-08T08:51:52;100064.84;;;4.72;100.00
49645;BME280;36494;50.730;-1.932;2024-03-08T08:54:17;100062.38;;;4.75;100.00
49645;BME280;36494;50.730;-1.932;2024-03-08T08:56:43;100055.53;;;4.81;100.00
49645;BME280;36494;50.730;-1.932;2024-03-08T08:59:08;100058.15;;;4.91;100.00
49645;BME280;36494;50.730;-1.932;2024-03-08T09:01:33;100051.09;;;4.96;100.00
49645;BME280;36494;50.730;-1.932;2024-03-08T09:04:00;100054.94;;;5.02;100.00
49645;BME280;36494;50.730;-1.932;2024-03-08T09:06:26;100054.76;;;5.07;100.00
49645;BME280;36494;50.730;-1.932;2024-03-08T09:08:51;100050.79;;;5.02;100.00
49645;BME280;36494;50.730;-1.932;2024-03-08T09:11:17;100047.21;;;5.03;100.00
49645;BME280;36494;50.730;-1.932;2024-03-08T09:13:44;100043.06;;;5.03;100.00
49645;BME280;36494;50.730;-1.932;2024-03-08T09:16:08;100044.09;;;5.14;100.00
49645;BME280;36494;50.730;-1.932;2024-03-08T09:18:35;100040.39;;;5.16;100.00
49645;BME280;36494;50.730;-1.932;2024-03-08T09:21:01;100037.02;;;5.18;100.00
49645;BME280;36494;50.730;-1.932;2024-03-08T09:23:26;100042.48;;;5.22;100.00
49645;BME280;36494;50.730;-1.932;2024-03-08T09:25:51;100035.20;;;5.26;100.00
49645;BME280;36494;50.730;-1.932;2024-03-08T09:28:17;100042.55;;;5.30;100.00
49645;BME280;36494;50.730;-1.932;2024-03-08T09:30:43;100041.21;;;5.31;100.00
49645;BME280;36494;50.730;-1.932;2024-03-08T09:33:08;100037.99;;;5.38;100.00
49645;BME280;36494;50.730;-1.932;2024-03-08T09:35:34;100038.43;;;5.46;100.00
49645;BME280;36494;50.730;-1.932;2024-03-08T09:37:59;100033.74;;;5.44;100.00
49645;BME280;36494;50.730;-1.932;2024-03-08T09:40:26;100030.41;;;5.53;100.00
49645;BME280;36494;50.730;-1.932;2024-03-08T09:42:52;100025.27;;;5.52;100.00
49645;BME280;36494;50.730;-1.932;2024-03-08T09:45:17;100019.01;;;5.61;100.00
49645;BME280;36494;50.730;-1.932;2024-03-08T09:47:43;100013.40;;;5.63;100.00
49645;BME280;36494;50.730;-1.932;2024-03-08T09:50:08;100001.08;;;5.73;100.00
49645;BME280;36494;50.730;-1.932;2024-03-08T09:52:33;100003.70;;;5.75;100.00
49645;BME280;36494;50.730;-1.932;2024-03-08T09:54:59;99997.06;;;5.75;100.00
49645;BME280;36494;50.730;-1.932;2024-03-08T09:57:25;99995.28;;;5.88;100.00
49645;BME280;36494;50.730;-1.932;2024-03-08T09:59:50;99984.18;;;6.04;100.00
49645;BME280;36494;50.730;-1.932;2024-03-08T10:02:15;99985.26;;;6.19;100.00
49645;BME280;36494;50.730;-1.932;2024-03-08T10:04:40;99979.92;;;6.29;100.00
49645;BME280;36494;50.730;-1.932;2024-03-08T10:07:07;99976.90;;;6.26;100.00
49645;BME280;36494;50.730;-1.932;2024-03-08T10:09:33;99971.09;;;6.23;100.00
49645;BME280;36494;50.730;-1.932;2024-03-08T10:11:59;99970.05;;;6.28;100.00
49645;BME280;36494;50.730;-1.932;2024-03-08T10:14:24;99966.11;;;6.27;100.00
49645;BME280;36494;50.730;-1.932;2024-03-08T10:16:49;99965.29;;;6.21;100.00
49645;BME280;36494;50.730;-1.932;2024-03-08T10:19:15;99962.95;;;6.04;100.00
49645;BME280;36494;50.730;-1.932;2024-03-08T10:21:48;99958.56;;;5.95;100.00
49645;BME280;36494;50.730;-1.932;2024-03-08T10:24:10;99957.59;;;5.97;100.00
49645;BME280;36494;50.730;-1.932;2024-03-08T10:26:32;99959.11;;;6.08;100.00
49645;BME280;36494;50.730;-1.932;2024-03-08T10:28:58;99948.71;;;6.07;100.00
49645;BME280;36494;50.730;-1.932;2024-03-08T10:31:23;99946.58;;;6.01;100.00
49645;BME280;36494;50.730;-1.932;2024-03-08T10:33:48;99933.84;;;6.12;100.00
49645;BME280;36494;50.730;-1.932;2024-03-08T10:36:16;99931.39;;;6.19;100.00
49645;BME280;36494;50.730;-1.932;2024-03-08T10:38:41;99926.55;;;6.19;100.00
49645;BME280;36494;50.730;-1.932;2024-03-08T10:41:07;99924.61;;;6.26;100.00
49645;BME280;36494;50.730;-1.932;2024-03-08T10:43:41;99923.56;;;6.34;100.00
49645;BME280;36494;50.730;-1.932;2024-03-08T10:46:06;99919.73;;;6.44;100.00
49645;BME280;36494;50.730;-1.932;2024-03-08T10:48:28;99922.76;;;6.57;100.00
49645;BME280;36494;50.730;-1.932;2024-03-08T10:50:50;99910.87;;;6.59;100.00
49645;BME280;36494;50.730;-1.932;2024-03-08T10:53:15;99904.85;;;6.59;100.00
49645;BME280;36494;50.730;-1.932;2024-03-08T10:55:41;99902.80;;;6.64;100.00
49645;BME280;36494;50.730;-1.932;2024-03-08T10:58:06;99907.89;;;6.68;100.00
49645;BME280;36494;50.730;-1.932;2024-03-08T11:00:32;99893.46;;;6.67;100.00
49645;BME280;36494;50.730;-1.932;2024-03-08T11:02:58;99896.09;;;6.70;100.00
49645;BME280;36494;50.730;-1.932;2024-03-08T11:05:36;99893.45;;;6.78;100.00
49645;BME280;36494;50.730;-1.932;2024-03-08T11:07:50;99897.35;;;6.86;100.00
49645;BME280;36494;50.730;-1.932;2024-03-08T11:10:18;99891.23;;;7.07;100.00
49645;BME280;36494;50.730;-1.932;2024-03-08T11:12:40;99893.29;;;7.22;100.00
49645;BME280;36494;50.730;-1.932;2024-03-08T11:15:10;99889.12;;;7.37;100.00
49645;BME280;36494;50.730;-1.932;2024-03-08T11:17:44;99887.90;;;7.64;100.00
49645;BME280;36494;50.730;-1.932;2024-03-08T11:19:58;99883.01;;;7.88;100.00
49645;BME280;36494;50.730;-1.932;2024-03-08T11:22:26;99874.05;;;8.01;100.00
49645;BME280;36494;50.730;-1.932;2024-03-08T11:24:48;99870.16;;;8.20;100.00
49645;BME280;36494;50.730;-1.932;2024-03-08T11:27:15;99871.64;;;8.46;100.00
49645;BME280;36494;50.730;-1.932;2024-03-08T11:29:40;99863.84;;;8.40;100.00
49645;BME280;36494;50.730;-1.932;2024-03-08T11:32:08;99871.30;;;8.56;100.00
49645;BME280;36494;50.730;-1.932;2024-03-08T11:34:32;99863.37;;;8.47;100.00
49645;BME280;36494;50.730;-1.932;2024-03-08T11:36:57;99863.91;;;8.64;100.00
49645;BME280;36494;50.730;-1.932;2024-03-08T11:39:22;99868.26;;;8.54;100.00
49645;BME280;36494;50.730;-1.932;2024-03-08T11:41:48;99864.44;;;8.77;100.00
49645;BME280;36494;50.730;-1.932;2024-03-08T11:44:14;99863.60;;;8.95;100.00
49645;BME280;36494;50.730;-1.932;2024-03-08T11:46:41;99853.38;;;8.96;100.00
49645;BME280;36494;50.730;-1.932;2024-03-08T11:49:06;99855.70;;;9.22;100.00
49645;BME280;36494;50.730;-1.932;2024-03-08T11:51:32;99849.33;;;9.41;100.00
49645;BME280;36494;50.730;-1.932;2024-03-08T11:53:58;99843.07;;;9.53;100.00
49645;BME280;36494;50.730;-1.932;2024-03-08T11:56:23;99842.02;;;9.77;100.00
49645;BME280;36494;50.730;-1.932;2024-03-08T11:58:53;99840.97;;;9.82;100.00
49645;BME280;36494;50.730;-1.932;2024-03-08T12:01:14;99831.45;;;9.86;100.00
49645;BME280;36494;50.730;-1.932;2024-03-08T12:03:40;99831.01;;;9.92;100.00
49645;BME280;36494;50.730;-1.932;2024-03-08T12:06:05;99824.76;;;9.80;100.00
49645;BME280;36494;50.730;-1.932;2024-03-08T12:08:31;99824.40;;;9.96;100.00
49645;BME280;36494;50.730;-1.932;2024-03-08T12:10:57;99814.53;;;9.88;100.00
49645;BME280;36494;50.730;-1.932;2024-03-08T12:13:22;99810.21;;;9.79;100.00
49645;BME280;36494;50.730;-1.932;2024-03-08T12:15:48;99804.68;;;9.78;100.00
49645;BME280;36494;50.730;-1.932;2024-03-08T12:18:13;99804.27;;;9.98;100.00
49645;BME280;36494;50.730;-1.932;2024-03-08T12:20:39;99797.33;;;10.00;100.00
49645;BME280;36494;50.730;-1.932;2024-03-08T12:23:04;99796.67;;;10.01;100.00
49645;BME280;36494;50.730;-1.932;2024-03-08T12:25:30;99784.87;;;9.99;100.00
49645;BME280;36494;50.730;-1.932;2024-03-08T12:27:54;99775.95;;;9.79;100.00
49645;BME280;36494;50.730;-1.932;2024-03-08T12:30:22;99771.39;;;9.77;100.00
49645;BME280;36494;50.730;-1.932;2024-03-08T12:32:50;99769.98;;;9.89;100.00